»·PEaware :: N899M KLAS-KSAN

N899M :: KLAS-KSAN

FLIGHT INFORMATION

Flight Status: Arrived
Operator: Privately registered:
United States
More flights under this callsign
Pilot: Robert C. (30425)
Aircraft: Unknown
(EPIC)
More flights by this aircraft type
Origin: KLAS McCarran Intl
United States
Destination: KSAN San Diego Intl-Lindbergh
United States
More flights between these airports :: More routes between these airports
Route: +GFS V514 TNP V514 MZB
File this flight plan on PilotEdge
Remarks:
Altitude:
(Current/Filed)
12,000ft
Speed:
(Current/Filed)
300kts
Departed: 15-Oct-20 07:08 PM
Arrived: 15-Oct-20 08:01 PM
Distance/Time
Traveled:
224nm/0:53
Distance/Time
To Go:
Arrived

Flight Plot

Page will automatically refresh every two minutes.

Flight plan parsing failed; only flown route is shown


Map Options




Map Legend


Flown Route
Filed Route
Departure Airport
Arrival Airport
Navaid (VOR, NDB)
Fix

Horizontal Profiles

Position Reports

Time Latitude Longitude Heading Altitude Ground
Speed
15-Oct-20 18:44 36.096543 -115.161768 296 2104ft 0kts
15-Oct-20 18:45 36.096543 -115.161768 296 2104ft 0kts
15-Oct-20 18:46 36.096543 -115.161768 296 2104ft 0kts
15-Oct-20 18:47 36.096543 -115.161768 296 2104ft 0kts
15-Oct-20 18:48 36.096543 -115.161768 296 2104ft 0kts
15-Oct-20 18:49 36.096542 -115.161768 296 2104ft 0kts
15-Oct-20 18:50 36.096542 -115.161768 296 2104ft 0kts
15-Oct-20 18:51 36.096542 -115.161768 296 2104ft 0kts
15-Oct-20 18:52 36.096542 -115.161768 296 2104ft 0kts
15-Oct-20 18:53 36.096542 -115.161768 296 2104ft 0kts
15-Oct-20 18:54 36.096542 -115.161768 296 2104ft 0kts
15-Oct-20 18:55 36.096542 -115.161768 296 2104ft 0kts
15-Oct-20 18:56 36.096542 -115.161768 296 2104ft 0kts
15-Oct-20 18:57 36.096543 -115.161768 296 2104ft 0kts
15-Oct-20 18:58 36.096661 -115.161731 41 2103ft 3kts
15-Oct-20 18:59 36.097547 -115.160477 47 2098ft 10kts
15-Oct-20 19:00 36.099890 -115.157590 97 2085ft 0kts
15-Oct-20 19:01 36.099890 -115.157590 97 2085ft 0kts
15-Oct-20 19:02 36.099874 -115.157486 103 2085ft 5kts
15-Oct-20 19:03 36.099252 -115.156662 197 2083ft 0kts
15-Oct-20 19:04 36.099252 -115.156662 197 2083ft 0kts
15-Oct-20 19:05 36.099252 -115.156662 197 2083ft 0kts
15-Oct-20 19:06 36.099252 -115.156662 197 2083ft 0kts
15-Oct-20 19:07 36.082331 -115.166772 205 2432ft 166kts
15-Oct-20 19:08 36.028816 -115.195992 201 4142ft 245kts
15-Oct-20 19:09 35.961183 -115.230785 201 5687ft 277kts
15-Oct-20 19:10 35.887332 -115.262627 172 7202ft 286kts
15-Oct-20 19:11 35.807620 -115.251273 173 8720ft 293kts
15-Oct-20 19:12 35.725954 -115.242146 174 10205ft 300kts
15-Oct-20 19:13 35.642173 -115.232827 174 11697ft 306kts
15-Oct-20 19:14 35.555359 -115.223203 174 12018ft 318kts
15-Oct-20 19:15 35.466451 -115.213350 174 12018ft 322kts
15-Oct-20 19:16 35.376658 -115.203421 174 12018ft 323kts
15-Oct-20 19:17 35.287254 -115.193556 174 12097ft 322kts
15-Oct-20 19:18 35.197966 -115.183730 174 12011ft 321kts
15-Oct-20 19:19 35.110271 -115.186106 200 12002ft 317kts
15-Oct-20 19:20 35.027507 -115.222236 201 11993ft 316kts
15-Oct-20 19:21 34.944662 -115.258796 201 11993ft 315kts
15-Oct-20 19:22 34.862383 -115.295031 201 11988ft 314kts
15-Oct-20 19:23 34.780335 -115.331089 201 11988ft 313kts
15-Oct-20 19:24 34.698489 -115.366980 201 11996ft 313kts
15-Oct-20 19:25 34.616619 -115.402804 201 12069ft 311kts
15-Oct-20 19:26 34.535234 -115.438343 201 12159ft 310kts
15-Oct-20 19:27 34.453885 -115.473791 201 12164ft 309kts
15-Oct-20 19:28 34.372949 -115.508987 201 12164ft 309kts
15-Oct-20 19:29 34.300093 -115.558802 225 12166ft 303kts
15-Oct-20 19:30 34.238319 -115.628135 226 12165ft 303kts
15-Oct-20 19:31 34.176451 -115.697735 225 12166ft 303kts
15-Oct-20 19:32 34.114528 -115.766884 220 12164ft 304kts
15-Oct-20 19:33 34.044268 -115.824932 216 12127ft 307kts
15-Oct-20 19:34 33.973138 -115.882492 216 12018ft 308kts
15-Oct-20 19:35 33.901769 -115.940122 216 11921ft 309kts
15-Oct-20 19:36 33.830703 -115.997456 216 11915ft 306kts
15-Oct-20 19:37 33.759927 -116.054403 216 11916ft 305kts
15-Oct-20 19:38 33.689350 -116.111053 216 11916ft 305kts
15-Oct-20 19:39 33.619112 -116.168109 218 11917ft 304kts
15-Oct-20 19:40 33.550794 -116.228005 218 11916ft 304kts
15-Oct-20 19:41 33.482534 -116.287816 218 11917ft 304kts
15-Oct-20 19:42 33.414120 -116.347643 218 11917ft 304kts
15-Oct-20 19:43 33.345817 -116.407258 218 11918ft 304kts
15-Oct-20 19:44 33.277555 -116.466746 218 11950ft 304kts
15-Oct-20 19:45 33.209354 -116.526063 218 12012ft 302kts
15-Oct-20 19:46 33.139804 -116.582545 196 12047ft 306kts
15-Oct-20 19:47 33.054951 -116.594769 184 12057ft 309kts
15-Oct-20 19:48 32.969046 -116.603719 184 12030ft 310kts
15-Oct-20 19:49 32.903039 -116.660839 220 11945ft 288kts
15-Oct-20 19:50 32.842538 -116.722708 220 9819ft 285kts
15-Oct-20 19:51 32.784661 -116.781722 221 7938ft 260kts
15-Oct-20 19:52 32.731617 -116.835719 221 6037ft 247kts
15-Oct-20 19:53 32.686941 -116.886955 247 4972ft 179kts
15-Oct-20 19:54 32.674224 -116.943983 284 4142ft 192kts
15-Oct-20 19:55 32.688013 -117.002904 287 3417ft 158kts
15-Oct-20 19:56 32.698792 -117.046923 287 2440ft 119kts
15-Oct-20 19:57 32.708004 -117.084643 286 2046ft 162kts
15-Oct-20 19:58 32.719100 -117.132279 288 1696ft 155kts
15-Oct-20 19:59 32.729239 -117.172479 288 165ft 94kts
15-Oct-20 20:00 32.733672 -117.188152 7 20ft 4kts
15-Oct-20 20:01 32.733738 -117.185580 107 20ft 21kts
15-Oct-20 20:02 32.731944 -117.178105 104 20ft 21kts
15-Oct-20 20:03 32.732222 -117.176765 197 20ft 0kts
15-Oct-20 20:04 32.732222 -117.176765 198 20ft 0kts
15-Oct-20 20:05 32.732222 -117.176765 198 20ft 0kts
15-Oct-20 20:06 32.732222 -117.176765 198 20ft 0kts
15-Oct-20 20:08 32.732222 -117.176765 198 20ft 0kts
15-Oct-20 20:09 32.732222 -117.176765 198 20ft 0kts
15-Oct-20 20:10 32.732222 -117.176765 198 20ft 0kts
15-Oct-20 20:11 32.732222 -117.176765 198 20ft 0kts
15-Oct-20 20:12 32.732222 -117.176765 198 20ft 0kts
15-Oct-20 20:13 32.732222 -117.176765 198 20ft 0kts
15-Oct-20 20:14 32.732222 -117.176765 198 20ft 0kts
15-Oct-20 20:15 32.732222 -117.176765 198 20ft 0kts
15-Oct-20 20:16 32.732222 -117.176765 198 20ft 0kts

Navigation Log

Ident Type
Flight plan parsing failed, navigation log unavailable